Time;durP1;ratioP1;P1;durP2;ratioP2;P2;SDS_P1;SDS_P2;PMS_P1;PMS_P2;Temp;Humidity;BMP_temperature;BMP_pressure;BME280_temperature;BME280_humidity;BME280_pressure;Samples;Min_cycle;Max_cycle;Signal;HPM_P1;HPM_P2
2024/04/06 00:01:20;;;;;;;11.80;2.27;;;13.50;99.90;;;;;;5030963;28;20452;-58
2024/04/06 00:03:45;;;;;;;2.80;2.50;;;13.50;99.90;;;;;;5031083;28;20955;-59
2024/04/06 00:06:11;;;;;;;6.50;2.83;;;13.50;99.90;;;;;;5031468;28;20457;-57
2024/04/06 00:08:37;;;;;;;2.97;2.47;;;13.50;99.90;;;;;;5030814;28;20646;-59
2024/04/06 00:11:02;;;;;;;2.73;2.37;;;13.60;99.90;;;;;;5031256;28;20195;-58
2024/04/06 00:13:28;;;;;;;2.10;1.90;;;13.60;99.90;;;;;;5030955;28;20191;-58
2024/04/06 00:15:53;;;;;;;6.53;2.03;;;13.60;99.90;;;;;;5031344;28;20195;-57
2024/04/06 00:18:19;;;;;;;3.97;1.80;;;13.60;99.90;;;;;;5031148;28;20330;-57
2024/04/06 00:20:44;;;;;;;2.60;2.40;;;13.70;99.90;;;;;;5031780;28;20196;-58
2024/04/06 00:23:10;;;;;;;2.70;2.50;;;13.70;99.90;;;;;;5031733;28;20299;-60
2024/04/06 00:25:36;;;;;;;4.43;1.90;;;13.70;99.90;;;;;;5031382;28;20262;-55
2024/04/06 00:28:01;;;;;;;3.23;2.00;;;13.80;99.90;;;;;;5030917;28;20187;-65
2024/04/06 00:30:27;;;;;;;2.90;2.50;;;13.80;99.90;;;;;;5030971;28;20731;-58
2024/04/06 00:32:53;;;;;;;3.27;2.20;;;13.80;99.90;;;;;;5030705;28;20239;-57
2024/04/06 00:35:18;;;;;;;5.27;2.37;;;13.80;99.90;;;;;;5030910;28;20184;-59
2024/04/06 00:37:44;;;;;;;3.47;2.67;;;13.80;99.90;;;;;;5030904;28;20188;-59
2024/04/06 00:40:10;;;;;;;3.87;2.03;;;13.80;99.90;;;;;;5031102;28;20180;-58
2024/04/06 00:42:36;;;;;;;2.80;2.30;;;13.70;99.90;;;;;;5030626;28;20449;-58
2024/04/06 00:45:03;;;;;;;3.93;2.23;;;13.70;99.90;;;;;;5030945;28;20809;-59
2024/04/06 00:47:28;;;;;;;4.57;2.50;;;13.70;99.90;;;;;;5030452;28;20204;-57
2024/04/06 00:49:54;;;;;;;9.33;2.70;;;13.60;99.90;;;;;;5032298;28;20912;-58
2024/04/06 00:52:20;;;;;;;3.57;2.43;;;13.50;99.90;;;;;;5033959;28;20191;-59
2024/04/06 00:54:45;;;;;;;3.40;3.10;;;13.50;99.90;;;;;;5034331;28;20710;-58
2024/04/06 00:57:12;;;;;;;2.97;2.40;;;13.50;99.90;;;;;;5034054;28;20175;-59
2024/04/06 00:59:38;;;;;;;2.73;2.37;;;13.50;99.90;;;;;;5033954;28;20269;-59
2024/04/06 01:02:05;;;;;;;5.03;2.73;;;13.40;99.90;;;;;;5033816;28;20473;-58
2024/04/06 01:04:30;;;;;;;3.73;2.17;;;13.40;99.90;;;;;;5033619;28;20458;-58
2024/04/06 01:06:56;;;;;;;2.33;2.13;;;13.40;99.90;;;;;;5033770;28;20492;-58
2024/04/06 01:09:23;;;;;;;3.80;2.97;;;13.30;99.90;;;;;;5033689;28;20190;-57
2024/04/06 01:11:49;;;;;;;3.20;3.00;;;13.30;99.90;;;;;;5033670;28;20442;-58
2024/04/06 01:14:15;;;;;;;3.20;2.70;;;13.30;99.90;;;;;;5033848;28;20472;-57
2024/04/06 01:16:41;;;;;;;4.17;2.80;;;13.20;99.90;;;;;;5033708;28;20191;-57
2024/04/06 01:19:06;;;;;;;6.73;2.77;;;13.20;99.90;;;;;;5033841;28;20418;-56
2024/04/06 01:21:32;;;;;;;6.30;3.43;;;13.20;99.90;;;;;;5033634;28;20652;-58
2024/04/06 01:24:01;;;;;;;5.03;3.40;;;13.10;99.90;;;;;;5033688;28;20203;-58
2024/04/06 01:26:27;;;;;;;2.97;2.67;;;13.10;99.90;;;;;;5033411;28;20177;-58
2024/04/06 01:28:52;;;;;;;3.27;2.93;;;13.10;99.90;;;;;;5033524;28;20430;-58
2024/04/06 01:31:18;;;;;;;3.20;2.40;;;13.10;99.90;;;;;;5033309;28;20213;-58
2024/04/06 01:33:49;;;;;;;4.33;3.63;;;13.10;99.90;;;;;;5033380;28;20572;-59
2024/04/06 01:36:15;;;;;;;2.93;2.70;;;13.10;99.90;;;;;;5033591;28;20188;-59
2024/04/06 01:38:40;;;;;;;5.10;3.10;;;13.00;99.90;;;;;;5033133;28;22082;-58
2024/04/06 01:41:06;;;;;;;2.70;2.50;;;13.00;99.90;;;;;;5033343;28;20205;-58
2024/04/06 01:43:32;;;;;;;5.07;2.40;;;13.00;99.90;;;;;;5031316;28;20207;-59
2024/04/06 01:45:57;;;;;;;3.20;2.90;;;13.00;99.90;;;;;;5033257;28;20238;-57
2024/04/06 01:48:23;;;;;;;2.83;2.63;;;13.00;99.90;;;;;;5032956;28;20670;-57
2024/04/06 01:50:48;;;;;;;5.73;2.50;;;13.00;99.90;;;;;;5033327;28;20172;-55
2024/04/06 01:53:14;;;;;;;3.37;3.17;;;13.00;99.90;;;;;;5033156;28;20184;-55
2024/04/06 01:55:39;;;;;;;3.40;3.10;;;13.00;99.90;;;;;;5033120;28;20195;-57
2024/04/06 01:58:05;;;;;;;3.73;3.43;;;13.00;99.90;;;;;;5033079;28;20271;-58
2024/04/06 02:00:31;;;;;;;4.73;2.13;;;13.00;99.90;;;;;;5032618;28;20214;-58
2024/04/06 02:02:56;;;;;;;4.23;2.60;;;13.00;99.90;;;;;;5032361;28;20196;-56
2024/04/06 02:05:22;;;;;;;3.60;3.23;;;13.00;99.90;;;;;;5033009;28;20182;-58
2024/04/06 02:07:47;;;;;;;2.40;2.20;;;13.00;99.90;;;;;;5032558;28;20539;-58
2024/04/06 02:10:13;;;;;;;4.80;3.13;;;13.00;99.90;;;;;;5032967;28;20229;-58
2024/04/06 02:12:38;;;;;;;3.70;2.83;;;13.00;99.90;;;;;;5032410;28;20225;-58
2024/04/06 02:15:04;;;;;;;3.93;2.57;;;13.00;99.90;;;;;;5032744;28;20192;-58
2024/04/06 02:17:30;;;;;;;3.70;3.30;;;13.00;99.90;;;;;;5032576;28;20189;-57
2024/04/06 02:19:55;;;;;;;2.80;2.60;;;13.00;99.90;;;;;;5032815;28;20767;-57
2024/04/06 02:22:21;;;;;;;3.00;2.70;;;13.10;99.90;;;;;;5032437;28;20212;-59
2024/04/06 02:24:46;;;;;;;4.93;4.33;;;13.10;99.90;;;;;;5032218;28;20203;-57
2024/04/06 02:27:12;;;;;;;3.50;3.10;;;13.00;99.90;;;;;;5032224;28;20187;-57
2024/04/06 02:29:38;;;;;;;5.50;4.60;;;13.00;99.90;;;;;;5032305;28;20724;-57
2024/04/06 02:32:04;;;;;;;4.40;3.40;;;13.00;99.90;;;;;;5032209;28;20207;-57
2024/04/06 02:34:29;;;;;;;3.73;3.20;;;13.00;99.90;;;;;;5032317;28;20233;-57
2024/04/06 02:36:55;;;;;;;5.50;3.47;;;13.00;99.90;;;;;;5032326;28;20183;-56
2024/04/06 02:39:20;;;;;;;3.20;2.77;;;13.00;99.90;;;;;;5032481;28;20655;-59
2024/04/06 02:41:46;;;;;;;3.10;2.80;;;13.00;99.90;;;;;;5032063;28;20203;-56
2024/04/06 02:44:11;;;;;;;3.70;2.30;;;13.00;99.90;;;;;;5032444;28;20211;-56
2024/04/06 02:46:37;;;;;;;3.27;2.70;;;12.90;99.90;;;;;;5032425;28;20182;-58
2024/04/06 02:49:02;;;;;;;5.83;2.93;;;13.00;99.90;;;;;;5032199;28;20183;-59
2024/04/06 02:51:28;;;;;;;4.67;3.10;;;13.00;99.90;;;;;;5014060;28;20195;-59
2024/04/06 02:53:54;;;;;;;4.33;2.97;;;12.90;99.90;;;;;;5031930;28;20190;-56
2024/04/06 02:56:19;;;;;;;4.30;2.50;;;13.00;99.90;;;;;;5032529;28;20181;-55
2024/04/06 02:58:45;;;;;;;3.00;2.80;;;12.90;99.90;;;;;;5031903;28;20183;-57
2024/04/06 03:01:11;;;;;;;3.00;2.47;;;13.00;99.90;;;;;;5032246;28;20195;-59
2024/04/06 03:03:36;;;;;;;3.60;2.50;;;13.00;99.90;;;;;;5031595;28;20206;-59
2024/04/06 03:06:02;;;;;;;4.33;2.97;;;13.00;99.90;;;;;;5032132;28;20583;-58
2024/04/06 03:08:27;;;;;;;4.23;2.37;;;13.00;99.90;;;;;;5031361;28;20181;-58
2024/04/06 03:10:53;;;;;;;2.70;2.50;;;13.00;99.90;;;;;;5014285;28;20258;-57
2024/04/06 03:13:19;;;;;;;3.83;2.13;;;13.00;99.90;;;;;;5031564;28;20175;-59
2024/04/06 03:15:45;;;;;;;4.10;3.23;;;13.00;99.90;;;;;;5031628;28;20219;-57
2024/04/06 03:18:12;;;;;;;3.13;2.83;;;13.00;99.90;;;;;;5031533;28;20190;-56
2024/04/06 03:20:38;;;;;;;3.57;2.53;;;13.00;99.90;;;;;;5031382;28;20505;-56
2024/04/06 03:23:05;;;;;;;3.80;2.40;;;13.00;99.90;;;;;;5031362;28;20441;-59
2024/04/06 03:25:32;;;;;;;7.00;3.13;;;13.00;99.90;;;;;;5031567;28;20973;-58
2024/04/06 03:27:58;;;;;;;2.90;2.70;;;13.00;99.90;;;;;;5031534;28;20476;-59
2024/04/06 03:30:25;;;;;;;4.13;2.87;;;13.00;99.90;;;;;;5031880;28;20418;-57
2024/04/06 03:32:51;;;;;;;3.50;2.57;;;13.00;99.90;;;;;;5031657;28;20450;-56
2024/04/06 03:35:18;;;;;;;3.73;2.50;;;13.00;99.90;;;;;;5031453;28;20428;-57
2024/04/06 03:37:47;;;;;;;2.73;2.53;;;13.00;99.90;;;;;;5030921;28;20491;-58
2024/04/06 03:40:13;;;;;;;4.70;2.60;;;13.00;99.90;;;;;;5031603;28;20504;-58
2024/04/06 03:42:38;;;;;;;2.30;2.07;;;13.00;99.90;;;;;;5031153;28;20790;-58
2024/04/06 03:45:05;;;;;;;5.00;2.87;;;13.00;99.90;;;;;;5031319;28;20481;-58
2024/04/06 03:47:31;;;;;;;2.73;2.53;;;13.00;99.90;;;;;;5031002;28;20850;-58
2024/04/06 03:49:57;;;;;;;3.80;2.07;;;13.00;99.90;;;;;;5013786;28;20509;-58
2024/04/06 03:52:24;;;;;;;3.93;2.20;;;13.00;99.90;;;;;;5031145;28;20192;-57
2024/04/06 03:54:49;;;;;;;2.60;2.40;;;13.00;99.90;;;;;;5031266;28;20496;-55
2024/04/06 03:57:15;;;;;;;3.93;2.80;;;12.90;99.90;;;;;;5031010;28;21142;-56
2024/04/06 03:59:41;;;;;;;6.93;2.93;;;13.00;99.90;;;;;;5031154;28;20510;-56
2024/04/06 04:02:07;;;;;;;2.50;2.30;;;13.00;99.90;;;;;;5031294;28;20464;-56
2024/04/06 04:04:32;;;;;;;3.10;1.97;;;12.90;99.90;;;;;;5030837;28;20282;-54
2024/04/06 04:06:58;;;;;;;4.60;2.80;;;12.90;99.90;;;;;;5030945;28;20631;-58
2024/04/06 04:09:24;;;;;;;2.03;1.93;;;12.90;99.90;;;;;;5031166;28;20183;-57
2024/04/06 04:11:50;;;;;;;3.87;2.83;;;12.90;99.90;;;;;;5030806;28;20306;-58
2024/04/06 04:14:16;;;;;;;3.10;2.90;;;12.90;99.90;;;;;;5031114;28;20184;-59
2024/04/06 04:16:42;;;;;;;4.60;2.47;;;12.90;99.90;;;;;;5030794;28;20431;-58
2024/04/06 04:19:08;;;;;;;5.10;2.40;;;12.90;99.90;;;;;;5031015;28;20184;-58
2024/04/06 04:21:33;;;;;;;2.10;1.90;;;12.80;99.90;;;;;;5030729;28;20466;-58
2024/04/06 04:23:59;;;;;;;4.33;2.13;;;12.90;99.90;;;;;;5031038;28;20670;-58
2024/04/06 04:26:24;;;;;;;6.03;2.90;;;12.80;99.90;;;;;;5017285;28;20183;-58
2024/04/06 04:28:50;;;;;;;6.23;2.20;;;12.80;99.90;;;;;;5034428;28;20203;-56
2024/04/06 04:31:17;;;;;;;3.23;2.43;;;12.80;99.90;;;;;;5017017;28;20853;-57
2024/04/06 04:33:44;;;;;;;3.23;2.17;;;12.80;99.90;;;;;;5034546;28;20198;-59
2024/04/06 04:36:12;;;;;;;7.63;3.80;;;12.80;99.90;;;;;;5034743;28;20434;-57
2024/04/06 04:38:39;;;;;;;2.20;2.00;;;12.80;99.90;;;;;;5034621;28;21103;-58
2024/04/06 04:41:05;;;;;;;2.77;2.40;;;12.80;99.90;;;;;;5034671;28;20447;-57
2024/04/06 04:43:30;;;;;;;3.53;2.13;;;12.80;99.90;;;;;;5034541;28;20461;-59
2024/04/06 04:45:56;;;;;;;3.07;2.40;;;12.80;99.90;;;;;;5034364;28;20274;-57
2024/04/06 04:48:23;;;;;;;3.27;2.33;;;12.80;99.90;;;;;;5034350;28;20188;-58
2024/04/06 04:50:49;;;;;;;2.67;2.47;;;12.80;99.90;;;;;;5034548;28;20426;-56
2024/04/06 04:53:14;;;;;;;6.23;2.70;;;12.80;99.90;;;;;;5034379;28;20523;-56
2024/04/06 04:55:40;;;;;;;5.13;2.80;;;12.80;99.90;;;;;;5034497;28;20458;-57
2024/04/06 04:58:06;;;;;;;5.20;2.80;;;12.80;99.90;;;;;;5034199;28;20183;-56
2024/04/06 05:00:31;;;;;;;2.40;2.20;;;12.90;99.90;;;;;;5034348;28;20188;-57
2024/04/06 05:02:57;;;;;;;7.80;2.60;;;12.90;99.90;;;;;;5033637;28;20589;-57
2024/04/06 05:05:23;;;;;;;3.50;2.97;;;12.90;99.90;;;;;;5034441;28;20246;-58
2024/04/06 05:07:49;;;;;;;7.33;3.00;;;12.90;99.90;;;;;;5033879;28;20181;-57
2024/04/06 05:10:14;;;;;;;4.50;2.63;;;13.00;99.90;;;;;;5034421;28;20502;-57
2024/04/06 05:12:40;;;;;;;4.10;2.53;;;13.10;99.90;;;;;;5033845;28;20203;-57
2024/04/06 05:15:06;;;;;;;4.00;2.67;;;13.20;99.90;;;;;;5033967;28;20651;-57
2024/04/06 05:17:32;;;;;;;2.77;2.50;;;13.30;99.90;;;;;;5033827;28;20546;-58
2024/04/06 05:19:57;;;;;;;3.03;2.73;;;13.40;99.90;;;;;;5033825;28;20418;-57
2024/04/06 05:22:23;;;;;;;3.17;2.63;;;13.40;99.90;;;;;;5033697;28;20211;-58
2024/04/06 05:24:49;;;;;;;4.30;2.50;;;13.50;99.90;;;;;;5033820;28;20706;-57
2024/04/06 05:27:14;;;;;;;3.93;2.37;;;13.50;99.90;;;;;;5033936;28;20194;-58
2024/04/06 05:29:40;;;;;;;3.80;2.37;;;13.60;99.90;;;;;;5033473;28;20237;-57
2024/04/06 05:32:06;;;;;;;3.23;2.30;;;13.60;99.90;;;;;;5033637;28;20211;-58
2024/04/06 05:34:31;;;;;;;2.90;2.00;;;13.70;99.90;;;;;;5033496;28;20241;-58
2024/04/06 05:36:57;;;;;;;3.40;2.00;;;13.70;99.90;;;;;;5032150;28;20188;-58
2024/04/06 05:39:22;;;;;;;3.40;2.20;;;13.80;99.90;;;;;;5033461;28;20237;-57
2024/04/06 05:41:49;;;;;;;2.57;2.37;;;13.90;99.90;;;;;;5033155;28;20216;-58
2024/04/06 05:44:15;;;;;;;4.07;2.50;;;13.90;99.90;;;;;;5033349;28;20206;-58
2024/04/06 05:46:40;;;;;;;4.73;2.77;;;14.00;99.90;;;;;;5033182;28;20424;-58
2024/04/06 05:49:06;;;;;;;3.80;2.43;;;14.00;99.90;;;;;;5033153;28;20213;-58
2024/04/06 05:51:32;;;;;;;3.20;2.60;;;14.00;99.90;;;;;;5033255;28;20554;-57
2024/04/06 05:53:59;;;;;;;2.40;2.20;;;14.00;99.90;;;;;;5033063;28;20189;-58
2024/04/06 05:56:25;;;;;;;2.20;2.00;;;14.00;99.90;;;;;;5033341;28;20419;-56
2024/04/06 05:58:51;;;;;;;3.03;2.53;;;14.10;99.90;;;;;;5032816;28;20501;-58
2024/04/06 06:01:16;;;;;;;3.50;3.20;;;14.10;99.90;;;;;;5033007;28;20221;-58
2024/04/06 06:03:42;;;;;;;3.60;2.53;;;14.00;99.90;;;;;;5032835;28;20201;-58
2024/04/06 06:06:08;;;;;;;5.13;1.80;;;14.10;99.90;;;;;;5033243;28;20342;-59
2024/04/06 06:08:33;;;;;;;3.30;2.33;;;14.10;99.90;;;;;;5032871;28;20250;-59
2024/04/06 06:10:59;;;;;;;3.50;2.70;;;14.10;99.90;;;;;;5032701;28;20301;-59
2024/04/06 06:13:25;;;;;;;2.23;2.03;;;14.20;99.90;;;;;;5032806;28;20223;-59
2024/04/06 06:15:50;;;;;;;2.13;1.83;;;14.30;99.90;;;;;;5032844;28;20220;-58
2024/04/06 06:18:16;;;;;;;3.27;2.30;;;14.40;99.90;;;;;;5032548;28;20196;-57
2024/04/06 06:20:41;;;;;;;2.70;2.07;;;14.40;99.90;;;;;;5032561;28;20233;-58
2024/04/06 06:23:07;;;;;;;4.20;2.13;;;14.50;99.90;;;;;;5032812;28;20194;-59
2024/04/06 06:25:33;;;;;;;2.73;2.07;;;14.70;99.90;;;;;;5033220;28;20196;-59
2024/04/06 06:27:59;;;;;;;4.97;2.70;;;14.70;99.90;;;;;;5032336;28;20287;-60
2024/04/06 06:30:25;;;;;;;4.37;2.30;;;14.90;99.90;;;;;;5032531;28;20517;-58
2024/04/06 06:32:51;;;;;;;2.90;2.50;;;14.90;99.90;;;;;;5032009;28;20607;-57
2024/04/06 06:35:17;;;;;;;2.43;2.23;;;15.00;99.90;;;;;;5032516;28;21038;-58
2024/04/06 06:37:43;;;;;;;2.93;2.73;;;15.10;99.90;;;;;;5032414;28;20220;-57
2024/04/06 06:40:09;;;;;;;3.83;2.30;;;15.10;99.90;;;;;;5032632;28;20432;-58
2024/04/06 06:42:34;;;;;;;4.00;3.70;;;15.20;99.90;;;;;;5032377;28;20436;-58
2024/04/06 06:45:05;;;;;;;3.63;2.93;;;15.30;99.90;;;;;;5031986;28;20203;-58
2024/04/06 06:47:31;;;;;;;3.57;1.80;;;15.50;99.90;;;;;;5032012;28;20190;-58
2024/04/06 06:49:56;;;;;;;3.40;3.07;;;15.70;99.90;;;;;;5032245;28;20429;-58
2024/04/06 06:52:22;;;;;;;3.27;1.80;;;15.70;99.90;;;;;;5032638;28;20458;-58
2024/04/06 06:54:48;;;;;;;5.43;2.20;;;15.70;99.90;;;;;;5031943;28;20657;-57
2024/04/06 06:57:13;;;;;;;2.73;1.90;;;15.70;99.90;;;;;;5032050;28;20197;-56
2024/04/06 06:59:39;;;;;;;5.37;2.17;;;15.80;99.90;;;;;;5032004;28;20435;-59
2024/04/06 07:02:05;;;;;;;4.80;2.00;;;15.80;99.90;;;;;;5031610;28;20311;-59
2024/04/06 07:04:31;;;;;;;4.23;1.80;;;15.90;99.90;;;;;;5031821;28;20217;-59
2024/04/06 07:06:56;;;;;;;6.57;2.50;;;16.20;99.90;;;;;;5031652;28;20960;-59
2024/04/06 07:09:22;;;;;;;3.93;3.30;;;16.40;99.90;;;;;;5032080;28;20192;-58
2024/04/06 07:11:47;;;;;;;3.77;2.53;;;16.40;99.90;;;;;;5031515;28;20251;-60
2024/04/06 07:14:13;;;;;;;3.40;2.60;;;16.50;99.90;;;;;;5031856;28;20190;-59
2024/04/06 07:16:39;;;;;;;2.70;2.50;;;16.60;99.90;;;;;;5032095;28;20582;-58
2024/04/06 07:19:07;;;;;;;4.07;2.70;;;16.60;99.90;;;;;;5031448;28;20546;-59
2024/04/06 07:21:33;;;;;;;5.87;2.30;;;16.80;99.90;;;;;;5031847;28;20208;-59
2024/04/06 07:23:59;;;;;;;1.90;1.73;;;16.80;99.90;;;;;;5031369;28;20528;-58
2024/04/06 07:26:24;;;;;;;2.60;1.83;;;16.80;99.90;;;;;;5031780;28;20322;-56
2024/04/06 07:28:54;;;;;;;3.20;2.43;;;17.20;99.90;;;;;;5031293;28;20192;-58
2024/04/06 07:31:19;;;;;;;6.70;3.27;;;17.20;99.90;;;;;;5031819;28;20216;-58
2024/04/06 07:33:45;;;;;;;3.87;1.73;;;17.50;99.90;;;;;;5031532;28;20531;-59
2024/04/06 07:36:10;;;;;;;3.20;1.50;;;17.80;99.90;;;;;;5031936;28;20190;-59
2024/04/06 07:38:36;;;;;;;6.60;2.80;;;18.50;99.90;;;;;;5031594;28;20290;-58
2024/04/06 07:41:03;;;;;;;6.63;2.30;;;18.70;99.90;;;;;;5031448;28;20211;-58
2024/04/06 07:43:29;;;;;;;3.60;2.00;;;19.00;99.90;;;;;;5031407;28;20205;-60
2024/04/06 07:45:55;;;;;;;2.70;2.17;;;19.20;99.90;;;;;;5031411;28;20431;-59
2024/04/06 07:48:22;;;;;;;3.37;1.70;;;19.40;99.90;;;;;;5031267;28;20426;-59
2024/04/06 07:50:48;;;;;;;2.53;2.23;;;19.00;99.90;;;;;;5030653;28;20948;-59
2024/04/06 07:53:13;;;;;;;3.43;1.70;;;19.20;99.90;;;;;;5030934;28;20425;-60
2024/04/06 07:55:39;;;;;;;3.63;2.40;;;19.70;99.90;;;;;;5031071;28;20418;-60
2024/04/06 07:58:05;;;;;;;5.80;2.70;;;20.00;99.90;;;;;;5030378;28;20184;-58
2024/04/06 08:00:35;;;;;;;2.83;1.90;;;20.10;99.90;;;;;;5033704;28;20262;-58
2024/04/06 08:03:01;;;;;;;3.20;1.83;;;20.70;99.90;;;;;;5034581;28;20257;-58
2024/04/06 08:05:27;;;;;;;3.20;1.63;;;20.30;99.90;;;;;;5034692;28;20426;-58
2024/04/06 08:07:53;;;;;;;2.23;1.60;;;20.70;99.90;;;;;;5034534;28;20190;-62
2024/04/06 08:10:22;;;;;;;4.00;1.57;;;20.70;99.90;;;;;;5035233;28;20237;-57
2024/04/06 08:12:50;;;;;;;2.53;1.73;;;20.60;99.90;;;;;;5034864;28;20241;-62
2024/04/06 08:15:16;;;;;;;2.50;1.40;;;20.80;99.90;;;;;;5035265;28;20520;-62
2024/04/06 08:17:45;;;;;;;2.30;1.10;;;21.00;99.90;;;;;;5034944;28;20430;-59
2024/04/06 08:20:11;;;;;;;5.00;1.80;;;21.10;99.90;;;;;;5030177;28;20434;-58
2024/04/06 08:22:38;;;;;;;4.60;2.17;;;20.80;99.90;;;;;;5034318;28;20446;-58
2024/04/06 08:25:05;;;;;;;2.00;1.80;;;21.50;99.90;;;;;;4998490;28;20454;-59
2024/04/06 08:27:34;;;;;;;2.57;1.60;;;21.40;99.90;;;;;;5034593;28;20425;-58
2024/04/06 08:30:04;;;;;;;3.10;1.40;;;21.40;99.90;;;;;;5034234;28;20501;-60
2024/04/06 08:32:30;;;;;;;2.80;1.60;;;21.20;99.90;;;;;;5034733;28;20800;-58
2024/04/06 08:34:57;;;;;;;2.30;1.60;;;20.50;99.90;;;;;;5032027;28;20434;-57
2024/04/06 08:37:23;;;;;;;2.50;1.33;;;21.10;99.90;;;;;;5034557;28;20433;-58
2024/04/06 08:39:48;;;;;;;3.63;1.37;;;21.20;99.90;;;;;;5034133;28;20460;-58
2024/04/06 08:42:19;;;;;;;2.10;1.73;;;21.80;99.90;;;;;;5034444;28;20211;-59
2024/04/06 08:44:45;;;;;;;2.47;1.50;;;21.60;99.90;;;;;;5033779;28;20203;-58
2024/04/06 08:47:20;;;;;;;1.53;1.13;;;21.90;99.90;;;;;;5033847;28;20436;-59
2024/04/06 08:49:46;;;;;;;4.77;2.27;;;22.10;99.90;;;;;;5034491;28;20512;-59
2024/04/06 08:52:13;;;;;;;1.50;1.23;;;22.30;99.90;;;;;;5034348;28;20446;-59
2024/04/06 08:54:39;;;;;;;2.60;1.53;;;22.60;99.90;;;;;;5034684;28;20790;-57
2024/04/06 08:57:05;;;;;;;2.03;1.50;;;22.10;99.90;;;;;;5034085;28;20429;-58
2024/04/06 08:59:34;;;;;;;2.20;1.43;;;22.50;99.90;;;;;;5034372;28;20436;-59
2024/04/06 09:02:01;;;;;;;3.93;2.20;;;23.10;99.90;;;;;;5033875;28;20507;-57
2024/04/06 09:04:27;;;;;;;2.10;1.47;;;23.20;99.90;;;;;;5034427;28;20971;-57
2024/04/06 09:06:52;;;;;;;3.80;1.90;;;22.80;99.90;;;;;;5033798;28;20505;-57
2024/04/06 09:09:18;;;;;;;2.83;1.20;;;22.60;99.90;;;;;;5034175;28;20912;-60
2024/04/06 09:11:44;;;;;;;2.23;1.73;;;22.80;99.90;;;;;;5033859;28;20199;-60
2024/04/06 09:14:11;;;;;;;2.50;1.53;;;22.30;99.90;;;;;;5033986;28;20183;-58
2024/04/06 09:16:38;;;;;;;2.70;1.40;;;21.90;99.90;;;;;;5034119;28;20453;-59
2024/04/06 09:19:04;;;;;;;6.00;1.13;;;22.20;99.90;;;;;;5033858;28;20418;-58
2024/04/06 09:21:30;;;;;;;2.07;1.70;;;22.10;99.90;;;;;;5033691;28;20445;-57
2024/04/06 09:23:57;;;;;;;2.83;1.33;;;21.60;99.90;;;;;;5033609;28;20773;-63
2024/04/06 09:26:23;;;;;;;2.93;1.87;;;21.90;99.90;;;;;;5033969;28;20430;-62
2024/04/06 09:28:51;;;;;;;2.00;1.87;;;21.60;99.90;;;;;;5033519;28;20418;-63
2024/04/06 09:31:23;;;;;;;3.20;2.40;;;22.40;99.90;;;;;;5033395;28;20450;-60
2024/04/06 09:33:59;;;;;;;3.10;2.03;;;23.40;99.90;;;;;;5033472;28;20429;-58
2024/04/06 09:36:25;;;;;;;4.87;2.60;;;22.60;99.90;;;;;;5033755;28;20505;-58
2024/04/06 09:38:52;;;;;;;2.97;2.27;;;21.90;99.90;;;;;;5033286;28;20493;-60
2024/04/06 09:41:19;;;;;;;3.13;1.97;;;21.90;99.90;;;;;;5033528;28;20524;-59
2024/04/06 09:43:52;;;;;;;2.67;1.90;;;21.80;99.90;;;;;;5033229;28;20465;-58
2024/04/06 09:46:18;;;;;;;2.87;2.20;;;22.30;99.90;;;;;;5033375;28;20468;-59
2024/04/06 09:48:44;;;;;;;3.33;2.83;;;22.70;99.90;;;;;;5033621;28;20433;-59
2024/04/06 09:51:10;;;;;;;2.33;2.07;;;22.70;99.90;;;;;;5033426;28;20440;-59
2024/04/06 09:53:38;;;;;;;2.20;1.40;;;23.50;99.90;;;;;;5033463;28;20426;-58
2024/04/06 09:56:05;;;;;;;5.00;4.07;;;23.20;99.90;;;;;;5032947;28;20924;-57
2024/04/06 09:58:33;;;;;;;6.87;5.80;;;22.80;99.90;;;;;;5033174;28;20449;-58
2024/04/06 10:01:14;;;;;;;3.40;2.03;;;22.70;99.90;;;;;;5032831;28;20490;-58
2024/04/06 10:03:48;;;;;;;2.30;1.93;;;22.10;99.90;;;;;;5033439;28;20534;-57
2024/04/06 10:06:28;;;;;;;2.80;2.00;;;22.00;99.90;;;;;;5033529;28;20413;-60
2024/04/06 10:08:59;;;;;;;3.17;1.87;;;21.90;99.90;;;;;;5032993;28;20749;-57
2024/04/06 10:11:28;;;;;;;3.33;1.90;;;21.80;99.90;;;;;;5032712;28;20445;-58
2024/04/06 10:13:57;;;;;;;1.60;1.50;;;21.70;99.90;;;;;;5032705;28;20412;-58
2024/04/06 10:16:26;;;;;;;2.00;1.80;;;21.60;99.90;;;;;;5014957;28;20481;-59
2024/04/06 10:18:55;;;;;;;3.13;2.00;;;21.20;99.90;;;;;;5032692;28;20433;-60
2024/04/06 10:21:21;;;;;;;2.10;1.53;;;21.40;99.90;;;;;;5032574;28;20446;-59
2024/04/06 10:23:47;;;;;;;2.23;1.63;;;21.50;99.90;;;;;;5032035;28;20956;-59
2024/04/06 10:26:14;;;;;;;1.70;1.27;;;22.00;99.90;;;;;;5032360;28;20184;-59
2024/04/06 10:28:41;;;;;;;2.37;1.63;;;22.20;99.90;;;;;;5032316;28;20499;-58
2024/04/06 10:31:06;;;;;;;2.27;1.20;;;21.80;99.90;;;;;;5032021;28;20449;-55
2024/04/06 10:33:32;;;;;;;1.57;1.47;;;21.80;99.90;;;;;;5032418;28;20433;-59
2024/04/06 10:35:58;;;;;;;2.17;1.97;;;22.30;99.90;;;;;;5032404;28;20199;-59
2024/04/06 10:38:23;;;;;;;2.73;1.63;;;22.10;99.90;;;;;;5032343;28;20184;-60
2024/04/06 10:40:49;;;;;;;1.50;1.40;;;22.20;99.90;;;;;;5032185;28;20195;-58
2024/04/06 10:43:15;;;;;;;3.33;1.53;;;22.20;99.90;;;;;;5031745;28;20242;-58
2024/04/06 10:45:40;;;;;;;2.73;1.47;;;22.10;99.90;;;;;;5032318;28;20235;-57
2024/04/06 10:48:06;;;;;;;2.00;1.27;;;21.90;99.90;;;;;;5032003;28;20241;-59
2024/04/06 10:50:33;;;;;;;1.20;1.00;;;22.20;99.90;;;;;;5032339;28;20181;-58
2024/04/06 10:53:00;;;;;;;2.80;1.17;;;22.10;99.90;;;;;;5031670;28;20199;-58
2024/04/06 10:55:27;;;;;;;1.90;1.07;;;22.40;99.90;;;;;;5032070;28;20968;-58
2024/04/06 10:57:55;;;;;;;4.10;1.70;;;22.30;99.90;;;;;;5031979;28;20422;-58
2024/04/06 11:00:22;;;;;;;1.83;1.17;;;22.40;99.90;;;;;;5032095;28;20433;-58
2024/04/06 11:02:48;;;;;;;1.50;1.30;;;22.50;99.90;;;;;;5032074;28;20438;-59
2024/04/06 11:05:13;;;;;;;2.60;1.10;;;22.60;99.90;;;;;;5031845;28;20532;-59
2024/04/06 11:07:40;;;;;;;1.87;1.00;;;22.60;99.90;;;;;;5031948;28;20203;-59
2024/04/06 11:10:07;;;;;;;2.60;1.60;;;22.60;99.90;;;;;;5031217;28;20194;-59
2024/04/06 11:12:37;;;;;;;2.00;1.40;;;22.80;99.90;;;;;;5031740;28;20442;-59
2024/04/06 11:15:02;;;;;;;3.93;1.30;;;23.00;99.90;;;;;;5031225;28;20777;-59
2024/04/06 11:17:28;;;;;;;2.70;1.23;;;22.60;99.90;;;;;;5031428;28;20452;-61
2024/04/06 11:19:55;;;;;;;1.40;1.00;;;22.40;99.90;;;;;;5031404;28;20229;-59
2024/04/06 11:22:21;;;;;;;1.80;1.33;;;22.10;99.90;;;;;;5031634;28;20203;-58
2024/04/06 11:24:48;;;;;;;2.30;1.30;;;22.30;99.90;;;;;;5031931;28;20452;-60
2024/04/06 11:27:21;;;;;;;2.07;1.23;;;22.70;99.90;;;;;;5031581;28;20479;-58
2024/04/06 11:29:51;;;;;;;2.03;0.90;;;23.00;99.90;;;;;;5031725;28;20413;-60
2024/04/06 11:32:19;;;;;;;1.13;0.97;;;23.60;99.90;;;;;;5031306;28;20446;-60
2024/04/06 11:34:50;;;;;;;2.13;1.03;;;23.90;99.90;;;;;;5030760;28;20418;-59
2024/04/06 11:37:16;;;;;;;1.40;1.13;;;23.90;99.90;;;;;;5031741;28;20425;-59
2024/04/06 11:39:42;;;;;;;1.70;1.30;;;23.60;99.90;;;;;;5031693;28;20468;-58
2024/04/06 11:42:08;;;;;;;2.00;1.10;;;23.40;99.90;;;;;;5031277;28;20437;-58
2024/04/06 11:44:34;;;;;;;1.43;1.00;;;23.20;99.90;;;;;;5044823;22;20540;-58
2024/04/06 11:47:00;;;;;;;1.40;1.20;;;23.20;99.90;;;;;;5036647;28;20188;-57
2024/04/06 11:49:25;;;;;;;1.30;1.07;;;23.20;99.90;;;;;;5045777;28;20173;-56
2024/04/06 11:51:51;;;;;;;2.00;0.90;;;23.40;99.90;;;;;;5029706;28;20453;-57
2024/04/06 11:54:16;;;;;;;2.63;1.40;;;23.20;99.90;;;;;;5048713;28;20237;-57
2024/04/06 11:56:42;;;;;;;1.90;1.20;;;23.10;99.90;;;;;;5049184;28;20814;-56
2024/04/06 11:59:08;;;;;;;1.47;1.10;;;23.30;99.90;;;;;;5031276;28;20171;-55
2024/04/06 12:01:35;;;;;;;2.73;1.20;;;22.90;99.90;;;;;;5037716;28;20674;-58
2024/04/06 12:04:02;;;;;;;2.30;1.47;;;22.90;99.90;;;;;;5028685;28;20215;-58
2024/04/06 12:06:28;;;;;;;2.77;1.07;;;23.00;99.90;;;;;;5029447;28;20427;-56
2024/04/06 12:08:54;;;;;;;2.50;1.30;;;23.30;99.90;;;;;;5029360;28;20440;-57
2024/04/06 12:11:19;;;;;;;1.40;1.30;;;23.00;99.90;;;;;;5028804;28;20932;-58
2024/04/06 12:13:45;;;;;;;2.83;1.20;;;23.10;99.90;;;;;;5028785;28;20752;-60
2024/04/06 12:16:11;;;;;;;1.87;1.37;;;23.20;99.90;;;;;;5037538;28;20275;-54
2024/04/06 12:18:37;;;;;;;1.10;0.90;;;23.10;99.90;;;;;;5029563;28;20229;-54
2024/04/06 12:21:03;;;;;;;2.10;1.23;;;23.20;99.90;;;;;;5037960;28;20190;-59
2024/04/06 12:23:29;;;;;;;1.47;1.10;;;23.30;99.90;;;;;;5033840;28;20425;-56
2024/04/06 12:25:54;;;;;;;1.20;1.00;;;23.40;99.90;;;;;;5042136;28;20648;-64
2024/04/06 12:28:20;;;;;;;1.10;1.00;;;23.50;99.90;;;;;;5032239;28;20167;-52
2024/04/06 12:30:45;;;;;;;1.40;1.00;;;23.40;99.90;;;;;;5049483;28;20163;-57
2024/04/06 12:33:11;;;;;;;1.20;1.10;;;23.50;99.90;;;;;;5032446;28;20298;-58
2024/04/06 12:35:39;;;;;;;1.20;1.10;;;23.80;99.90;;;;;;5038870;28;20539;-58
2024/04/06 12:38:04;;;;;;;1.40;1.20;;;23.60;99.40;;;;;;5038626;28;20179;-58
2024/04/06 12:40:31;;;;;;;2.80;1.40;;;23.50;99.90;;;;;;5046071;28;20415;-56
2024/04/06 12:42:56;;;;;;;1.33;1.23;;;23.40;99.90;;;;;;5043697;28;20191;-57